sensor_id;sensor_type;location;lat;lon;timestamp;pressure;altitude;pressure_sealevel;temperature;humidity
75855;BME280;64502;59.976;30.316;2023-07-20T00:00:49;99643.88;;;16.93;75.51
75855;BME280;64502;59.976;30.316;2023-07-20T00:03:19;99645.84;;;16.91;75.94
75855;BME280;64502;59.976;30.316;2023-07-20T00:05:51;99648.00;;;16.87;76.49
75855;BME280;64502;59.976;30.316;2023-07-20T00:08:17;99657.13;;;16.84;76.93
75855;BME280;64502;59.976;30.316;2023-07-20T00:10:43;99654.59;;;16.83;76.82
75855;BME280;64502;59.976;30.316;2023-07-20T00:13:10;99656.63;;;16.81;76.83
75855;BME280;64502;59.976;30.316;2023-07-20T00:15:38;99668.25;;;16.80;76.84
75855;BME280;64502;59.976;30.316;2023-07-20T00:18:04;99662.91;;;16.80;76.14
75855;BME280;64502;59.976;30.316;2023-07-20T00:20:30;99645.56;;;16.76;76.39
75855;BME280;64502;59.976;30.316;2023-07-20T00:22:56;99664.59;;;16.81;76.45
75855;BME280;64502;59.976;30.316;2023-07-20T00:25:23;99657.59;;;16.80;77.22
75855;BME280;64502;59.976;30.316;2023-07-20T00:27:51;99654.78;;;16.81;77.06
75855;BME280;64502;59.976;30.316;2023-07-20T00:30:17;99664.44;;;16.82;76.65
75855;BME280;64502;59.976;30.316;2023-07-20T00:32:45;99655.47;;;16.83;76.54
75855;BME280;64502;59.976;30.316;2023-07-20T00:35:11;99650.28;;;16.82;76.79
75855;BME280;64502;59.976;30.316;2023-07-20T00:37:37;99654.59;;;16.83;77.07
75855;BME280;64502;59.976;30.316;2023-07-20T00:40:03;99657.28;;;16.83;77.16
75855;BME280;64502;59.976;30.316;2023-07-20T00:42:33;99656.28;;;16.84;76.54
75855;BME280;64502;59.976;30.316;2023-07-20T00:44:59;99658.13;;;16.83;77.07
75855;BME280;64502;59.976;30.316;2023-07-20T00:47:26;99657.97;;;16.85;77.06
75855;BME280;64502;59.976;30.316;2023-07-20T00:49:52;99651.78;;;16.84;77.29
75855;BME280;64502;59.976;30.316;2023-07-20T00:52:18;99649.13;;;16.84;76.87
75855;BME280;64502;59.976;30.316;2023-07-20T00:54:46;99646.63;;;16.83;77.39
75855;BME280;64502;59.976;30.316;2023-07-20T00:57:14;99651.13;;;16.82;77.40
75855;BME280;64502;59.976;30.316;2023-07-20T00:59:41;99649.59;;;16.80;77.19
75855;BME280;64502;59.976;30.316;2023-07-20T01:02:06;99651.59;;;16.78;77.77
75855;BME280;64502;59.976;30.316;2023-07-20T01:04:32;99654.25;;;16.78;77.63
75855;BME280;64502;59.976;30.316;2023-07-20T01:10:05;99662.09;;;16.79;77.84
75855;BME280;64502;59.976;30.316;2023-07-20T01:12:42;99655.38;;;16.75;78.30
75855;BME280;64502;59.976;30.316;2023-07-20T01:15:10;99658.19;;;16.74;79.32
75855;BME280;64502;59.976;30.316;2023-07-20T01:17:37;99654.69;;;16.73;79.51
75855;BME280;64502;59.976;30.316;2023-07-20T01:20:03;99659.00;;;16.74;79.44
75855;BME280;64502;59.976;30.316;2023-07-20T01:22:59;99665.75;;;16.78;78.93
75855;BME280;64502;59.976;30.316;2023-07-20T01:26:08;99663.09;;;16.78;78.93
75855;BME280;64502;59.976;30.316;2023-07-20T01:31:27;99658.41;;;16.80;78.59
75855;BME280;64502;59.976;30.316;2023-07-20T01:33:58;99658.59;;;16.79;79.03
75855;BME280;64502;59.976;30.316;2023-07-20T01:36:37;99662.38;;;16.76;79.75
75855;BME280;64502;59.976;30.316;2023-07-20T01:39:03;99662.50;;;16.75;78.83
75855;BME280;64502;59.976;30.316;2023-07-20T01:41:30;99660.69;;;16.75;79.87
75855;BME280;64502;59.976;30.316;2023-07-20T01:43:58;99665.03;;;16.76;80.01
75855;BME280;64502;59.976;30.316;2023-07-20T01:46:27;99668.00;;;16.73;79.89
75855;BME280;64502;59.976;30.316;2023-07-20T01:48:53;99665.34;;;16.73;79.73
75855;BME280;64502;59.976;30.316;2023-07-20T01:51:19;99666.16;;;16.74;79.80
75855;BME280;64502;59.976;30.316;2023-07-20T01:53:45;99653.84;;;16.73;80.45
75855;BME280;64502;59.976;30.316;2023-07-20T01:56:10;99662.69;;;16.73;80.43
75855;BME280;64502;59.976;30.316;2023-07-20T01:58:37;99660.69;;;16.75;80.24
75855;BME280;64502;59.976;30.316;2023-07-20T02:01:03;99663.38;;;16.75;80.55
75855;BME280;64502;59.976;30.316;2023-07-20T02:03:29;99667.69;;;16.76;80.61
75855;BME280;64502;59.976;30.316;2023-07-20T02:05:54;99674.72;;;16.77;80.45
75855;BME280;64502;59.976;30.316;2023-07-20T02:08:19;99664.91;;;16.78;80.58
75855;BME280;64502;59.976;30.316;2023-07-20T02:10:47;99668.25;;;16.80;80.76
75855;BME280;64502;59.976;30.316;2023-07-20T02:13:12;99668.94;;;16.82;79.75
75855;BME280;64502;59.976;30.316;2023-07-20T02:15:38;99667.09;;;16.82;80.28
75855;BME280;64502;59.976;30.316;2023-07-20T02:18:05;99662.59;;;16.83;80.24
75855;BME280;64502;59.976;30.316;2023-07-20T02:20:31;99665.13;;;16.84;80.16
75855;BME280;64502;59.976;30.316;2023-07-20T02:22:56;99663.97;;;16.87;79.89
75855;BME280;64502;59.976;30.316;2023-07-20T02:25:22;99669.13;;;16.89;79.64
75855;BME280;64502;59.976;30.316;2023-07-20T02:27:47;99670.81;;;16.90;79.62
75855;BME280;64502;59.976;30.316;2023-07-20T02:30:13;99667.00;;;16.92;79.51
75855;BME280;64502;59.976;30.316;2023-07-20T02:32:39;99665.03;;;16.94;79.21
75855;BME280;64502;59.976;30.316;2023-07-20T02:35:05;99667.53;;;16.96;79.05
75855;BME280;64502;59.976;30.316;2023-07-20T02:37:31;99671.56;;;17.00;78.85
75855;BME280;64502;59.976;30.316;2023-07-20T02:39:59;99673.91;;;17.03;79.08
75855;BME280;64502;59.976;30.316;2023-07-20T02:42:26;99669.94;;;17.07;79.13
75855;BME280;64502;59.976;30.316;2023-07-20T02:44:51;99672.13;;;17.12;78.42
75855;BME280;64502;59.976;30.316;2023-07-20T02:47:17;99674.34;;;17.16;77.97
75855;BME280;64502;59.976;30.316;2023-07-20T02:49:42;99675.00;;;17.18;78.22
75855;BME280;64502;59.976;30.316;2023-07-20T02:52:11;99671.19;;;17.21;77.94
75855;BME280;64502;59.976;30.316;2023-07-20T02:54:36;99670.03;;;17.23;77.50
75855;BME280;64502;59.976;30.316;2023-07-20T02:57:02;99684.50;;;17.21;77.58
75855;BME280;64502;59.976;30.316;2023-07-20T02:59:30;99674.03;;;17.19;77.12
75855;BME280;64502;59.976;30.316;2023-07-20T03:01:55;99657.47;;;17.16;77.60
75855;BME280;64502;59.976;30.316;2023-07-20T03:04:21;99669.28;;;17.13;78.21
75855;BME280;64502;59.976;30.316;2023-07-20T03:06:49;99671.34;;;17.19;76.36
75855;BME280;64502;59.976;30.316;2023-07-20T03:09:15;99670.31;;;17.12;78.45
75855;BME280;64502;59.976;30.316;2023-07-20T03:11:41;99670.75;;;17.07;78.23
75855;BME280;64502;59.976;30.316;2023-07-20T03:14:06;99678.94;;;17.06;77.93
75855;BME280;64502;59.976;30.316;2023-07-20T03:16:32;99668.28;;;17.06;78.91
75855;BME280;64502;59.976;30.316;2023-07-20T03:18:59;99686.09;;;17.05;78.26
75855;BME280;64502;59.976;30.316;2023-07-20T03:21:28;99666.44;;;17.06;77.53
75855;BME280;64502;59.976;30.316;2023-07-20T03:23:54;99667.44;;;17.05;77.51
75855;BME280;64502;59.976;30.316;2023-07-20T03:26:19;99668.97;;;17.08;79.07
75855;BME280;64502;59.976;30.316;2023-07-20T03:28:45;99661.78;;;17.08;78.12
75855;BME280;64502;59.976;30.316;2023-07-20T03:31:13;99675.25;;;17.07;77.81
75855;BME280;64502;59.976;30.316;2023-07-20T03:33:40;99675.13;;;17.08;78.00
75855;BME280;64502;59.976;30.316;2023-07-20T03:36:05;99680.44;;;17.08;77.71
75855;BME280;64502;59.976;30.316;2023-07-20T03:38:31;99679.31;;;17.11;77.69
75855;BME280;64502;59.976;30.316;2023-07-20T03:40:58;99678.16;;;17.14;76.95
75855;BME280;64502;59.976;30.316;2023-07-20T03:43:27;99673.00;;;17.20;75.91
75855;BME280;64502;59.976;30.316;2023-07-20T03:45:54;99676.75;;;17.27;75.99
75855;BME280;64502;59.976;30.316;2023-07-20T03:48:21;99673.28;;;17.35;75.58
75855;BME280;64502;59.976;30.316;2023-07-20T03:50:48;99684.00;;;17.43;74.96
75855;BME280;64502;59.976;30.316;2023-07-20T03:53:15;99672.19;;;17.54;74.78
75855;BME280;64502;59.976;30.316;2023-07-20T03:55:51;99677.75;;;17.69;74.13
75855;BME280;64502;59.976;30.316;2023-07-20T03:58:17;99672.31;;;17.79;75.54
75855;BME280;64502;59.976;30.316;2023-07-20T04:00:46;99683.69;;;17.89;75.50
75855;BME280;64502;59.976;30.316;2023-07-20T04:03:15;99679.03;;;17.91;74.92
75855;BME280;64502;59.976;30.316;2023-07-20T04:05:41;99678.03;;;17.92;75.44
75855;BME280;64502;59.976;30.316;2023-07-20T04:08:11;99677.19;;;17.91;75.29
75855;BME280;64502;59.976;30.316;2023-07-20T04:10:43;99682.53;;;17.91;75.62
75855;BME280;64502;59.976;30.316;2023-07-20T04:13:08;99672.72;;;18.00;74.77
75855;BME280;64502;59.976;30.316;2023-07-20T04:15:34;99672.75;;;18.08;74.69
75855;BME280;64502;59.976;30.316;2023-07-20T04:17:59;99682.94;;;18.13;74.46
75855;BME280;64502;59.976;30.316;2023-07-20T04:20:28;99683.78;;;18.22;73.47
75855;BME280;64502;59.976;30.316;2023-07-20T04:22:53;99677.47;;;18.31;73.65
75855;BME280;64502;59.976;30.316;2023-07-20T04:25:22;99685.31;;;18.40;73.40
75855;BME280;64502;59.976;30.316;2023-07-20T04:27:47;99685.81;;;18.44;73.02
75855;BME280;64502;59.976;30.316;2023-07-20T04:30:12;99680.47;;;18.44;73.05
75855;BME280;64502;59.976;30.316;2023-07-20T04:32:39;99679.66;;;18.44;72.93
75855;BME280;64502;59.976;30.316;2023-07-20T04:35:09;99690.84;;;18.39;72.76
75855;BME280;64502;59.976;30.316;2023-07-20T04:37:34;99692.63;;;18.30;72.70
75855;BME280;64502;59.976;30.316;2023-07-20T04:40:00;99692.31;;;18.25;73.15
75855;BME280;64502;59.976;30.316;2023-07-20T04:42:26;99694.47;;;18.22;72.96
75855;BME280;64502;59.976;30.316;2023-07-20T04:44:51;99699.31;;;18.18;72.89
75855;BME280;64502;59.976;30.316;2023-07-20T04:47:17;99692.47;;;18.15;72.86
75855;BME280;64502;59.976;30.316;2023-07-20T04:49:42;99693.28;;;18.16;72.72
75855;BME280;64502;59.976;30.316;2023-07-20T04:52:08;99696.63;;;18.18;72.81
75855;BME280;64502;59.976;30.316;2023-07-20T04:54:34;99708.97;;;18.19;72.60
75855;BME280;64502;59.976;30.316;2023-07-20T04:56:59;99691.97;;;18.20;72.47
75855;BME280;64502;59.976;30.316;2023-07-20T04:59:25;99698.28;;;18.19;72.42
75855;BME280;64502;59.976;30.316;2023-07-20T05:01:50;99689.81;;;18.24;72.54
75855;BME280;64502;59.976;30.316;2023-07-20T05:04:15;99700.97;;;18.27;72.51
75855;BME280;64502;59.976;30.316;2023-07-20T05:06:41;99697.97;;;18.30;72.49
75855;BME280;64502;59.976;30.316;2023-07-20T05:09:06;99694.00;;;18.34;71.91
75855;BME280;64502;59.976;30.316;2023-07-20T05:11:33;99701.69;;;18.37;72.19
75855;BME280;64502;59.976;30.316;2023-07-20T05:13:58;99692.00;;;18.36;71.70
75855;BME280;64502;59.976;30.316;2023-07-20T05:16:23;99701.19;;;18.34;71.52
75855;BME280;64502;59.976;30.316;2023-07-20T05:18:51;99712.19;;;18.31;71.73
75855;BME280;64502;59.976;30.316;2023-07-20T05:21:17;99694.47;;;18.30;71.97
75855;BME280;64502;59.976;30.316;2023-07-20T05:23:42;99704.84;;;18.33;71.23
75855;BME280;64502;59.976;30.316;2023-07-20T05:26:08;99704.19;;;18.39;71.47
75855;BME280;64502;59.976;30.316;2023-07-20T05:28:40;99708.53;;;18.48;70.80
75855;BME280;64502;59.976;30.316;2023-07-20T05:31:06;99701.69;;;18.62;70.43
75855;BME280;64502;59.976;30.316;2023-07-20T05:33:31;99699.88;;;18.71;69.45
75855;BME280;64502;59.976;30.316;2023-07-20T05:35:57;99704.75;;;18.75;69.52
75855;BME280;64502;59.976;30.316;2023-07-20T05:38:22;99701.91;;;18.77;69.19
75855;BME280;64502;59.976;30.316;2023-07-20T05:40:48;99710.09;;;18.75;68.91
75855;BME280;64502;59.976;30.316;2023-07-20T05:43:13;99698.25;;;18.86;68.91
75855;BME280;64502;59.976;30.316;2023-07-20T05:45:42;99704.56;;;18.93;69.19
75855;BME280;64502;59.976;30.316;2023-07-20T05:48:08;99717.44;;;19.06;68.62
75855;BME280;64502;59.976;30.316;2023-07-20T05:50:37;99707.91;;;18.95;68.30
75855;BME280;64502;59.976;30.316;2023-07-20T05:53:02;99734.50;;;18.89;68.01
75855;BME280;64502;59.976;30.316;2023-07-20T05:55:27;99714.63;;;18.83;67.85
75855;BME280;64502;59.976;30.316;2023-07-20T05:57:53;99708.72;;;18.71;68.46
75855;BME280;64502;59.976;30.316;2023-07-20T06:00:23;99711.38;;;18.63;69.44
75855;BME280;64502;59.976;30.316;2023-07-20T06:02:52;99714.38;;;18.60;69.31
75855;BME280;64502;59.976;30.316;2023-07-20T06:05:18;99705.53;;;18.59;69.36
75855;BME280;64502;59.976;30.316;2023-07-20T06:07:45;99708.06;;;18.61;69.37
75855;BME280;64502;59.976;30.316;2023-07-20T06:10:11;99704.53;;;18.60;69.20
75855;BME280;64502;59.976;30.316;2023-07-20T06:12:36;99711.38;;;18.63;68.58
75855;BME280;64502;59.976;30.316;2023-07-20T06:15:03;99716.41;;;18.66;68.11
75855;BME280;64502;59.976;30.316;2023-07-20T06:17:29;99714.22;;;18.61;67.67
75855;BME280;64502;59.976;30.316;2023-07-20T06:19:55;99723.56;;;18.57;66.84
75855;BME280;64502;59.976;30.316;2023-07-20T06:22:20;99718.88;;;18.51;66.25
75855;BME280;64502;59.976;30.316;2023-07-20T06:24:46;99729.91;;;18.48;66.35
75855;BME280;64502;59.976;30.316;2023-07-20T06:27:11;99722.41;;;18.52;66.00
75855;BME280;64502;59.976;30.316;2023-07-20T06:29:37;99721.75;;;18.50;64.41
75855;BME280;64502;59.976;30.316;2023-07-20T06:32:04;99723.41;;;18.51;64.56
75855;BME280;64502;59.976;30.316;2023-07-20T06:34:30;99726.75;;;18.53;65.13
75855;BME280;64502;59.976;30.316;2023-07-20T06:36:55;99718.22;;;18.57;65.40
75855;BME280;64502;59.976;30.316;2023-07-20T06:39:21;99724.44;;;18.66;64.99
75855;BME280;64502;59.976;30.316;2023-07-20T06:41:47;99724.78;;;18.79;64.69
75855;BME280;64502;59.976;30.316;2023-07-20T06:44:16;99735.81;;;18.84;64.36
75855;BME280;64502;59.976;30.316;2023-07-20T06:46:41;99738.34;;;18.86;63.83
75855;BME280;64502;59.976;30.316;2023-07-20T06:49:07;99733.31;;;18.91;63.27
75855;BME280;64502;59.976;30.316;2023-07-20T06:51:35;99740.66;;;18.97;63.06
75855;BME280;64502;59.976;30.316;2023-07-20T06:54:01;99746.00;;;18.97;62.75
75855;BME280;64502;59.976;30.316;2023-07-20T06:56:26;99742.31;;;19.06;63.09
75855;BME280;64502;59.976;30.316;2023-07-20T06:58:52;99754.03;;;19.14;62.89
75855;BME280;64502;59.976;30.316;2023-07-20T07:01:18;99753.00;;;19.23;63.42
75855;BME280;64502;59.976;30.316;2023-07-20T07:03:44;99736.78;;;19.33;63.09
75855;BME280;64502;59.976;30.316;2023-07-20T07:06:09;99744.63;;;19.34;62.00
75855;BME280;64502;59.976;30.316;2023-07-20T07:08:35;99729.44;;;19.35;61.67
75855;BME280;64502;59.976;30.316;2023-07-20T07:11:01;99740.59;;;19.46;61.29
75855;BME280;64502;59.976;30.316;2023-07-20T07:13:26;99742.56;;;19.61;60.47
75855;BME280;64502;59.976;30.316;2023-07-20T07:15:52;99737.72;;;19.64;60.48
75855;BME280;64502;59.976;30.316;2023-07-20T07:18:17;99743.25;;;19.63;60.46
75855;BME280;64502;59.976;30.316;2023-07-20T07:20:52;99747.75;;;19.79;60.45
75855;BME280;64502;59.976;30.316;2023-07-20T07:23:18;99744.00;;;19.96;59.60
75855;BME280;64502;59.976;30.316;2023-07-20T07:25:43;99739.75;;;20.10;59.09
75855;BME280;64502;59.976;30.316;2023-07-20T07:28:09;99734.03;;;20.13;58.99
75855;BME280;64502;59.976;30.316;2023-07-20T07:30:34;99754.63;;;20.12;58.52
75855;BME280;64502;59.976;30.316;2023-07-20T07:33:00;99740.69;;;20.25;58.13
75855;BME280;64502;59.976;30.316;2023-07-20T07:35:25;99748.44;;;20.43;57.55
75855;BME280;64502;59.976;30.316;2023-07-20T07:37:51;99748.16;;;20.38;57.19
75855;BME280;64502;59.976;30.316;2023-07-20T07:40:16;99744.03;;;20.50;57.52
75855;BME280;64502;59.976;30.316;2023-07-20T07:42:42;99742.94;;;20.68;57.33
75855;BME280;64502;59.976;30.316;2023-07-20T07:45:08;99744.97;;;20.89;56.40
75855;BME280;64502;59.976;30.316;2023-07-20T07:47:33;99740.94;;;21.08;55.33
75855;BME280;64502;59.976;30.316;2023-07-20T07:49:59;99751.69;;;21.22;55.27
75855;BME280;64502;59.976;30.316;2023-07-20T07:52:24;99745.25;;;21.32;55.76
75855;BME280;64502;59.976;30.316;2023-07-20T07:54:50;99751.78;;;21.37;56.49
75855;BME280;64502;59.976;30.316;2023-07-20T07:57:15;99774.19;;;21.21;54.29
75855;BME280;64502;59.976;30.316;2023-07-20T07:59:41;99757.78;;;21.01;55.46
75855;BME280;64502;59.976;30.316;2023-07-20T08:02:06;99759.81;;;20.76;55.51
75855;BME280;64502;59.976;30.316;2023-07-20T08:04:32;99776.34;;;20.49;56.45
75855;BME280;64502;59.976;30.316;2023-07-20T08:06:59;99774.69;;;20.25;56.96
75855;BME280;64502;59.976;30.316;2023-07-20T08:09:25;99764.00;;;20.16;57.55
75855;BME280;64502;59.976;30.316;2023-07-20T08:11:53;99763.50;;;20.13;57.53
75855;BME280;64502;59.976;30.316;2023-07-20T08:14:18;99752.31;;;20.09;57.82
75855;BME280;64502;59.976;30.316;2023-07-20T08:16:46;99749.47;;;20.11;57.24
75855;BME280;64502;59.976;30.316;2023-07-20T08:19:12;99746.06;;;20.17;56.75
75855;BME280;64502;59.976;30.316;2023-07-20T08:21:38;99757.06;;;20.30;55.67
75855;BME280;64502;59.976;30.316;2023-07-20T08:24:03;99743.94;;;20.44;55.37
75855;BME280;64502;59.976;30.316;2023-07-20T08:26:29;99742.53;;;20.56;54.48
75855;BME280;64502;59.976;30.316;2023-07-20T08:28:54;99753.25;;;20.56;54.28
75855;BME280;64502;59.976;30.316;2023-07-20T08:31:20;99750.41;;;20.49;53.85
75855;BME280;64502;59.976;30.316;2023-07-20T08:33:45;99738.28;;;20.61;54.57
75855;BME280;64502;59.976;30.316;2023-07-20T08:36:11;99744.31;;;20.87;54.12
75855;BME280;64502;59.976;30.316;2023-07-20T08:38:36;99750.19;;;21.05;53.55
75855;BME280;64502;59.976;30.316;2023-07-20T08:41:04;99762.25;;;21.24;53.44
75855;BME280;64502;59.976;30.316;2023-07-20T08:43:30;99765.34;;;21.36;52.37
75855;BME280;64502;59.976;30.316;2023-07-20T08:45:57;99774.81;;;21.46;53.00
75855;BME280;64502;59.976;30.316;2023-07-20T08:48:24;99772.63;;;21.50;53.39
75855;BME280;64502;59.976;30.316;2023-07-20T08:50:51;99769.75;;;21.52;52.16
75855;BME280;64502;59.976;30.316;2023-07-20T08:53:20;99773.94;;;21.69;51.94
75855;BME280;64502;59.976;30.316;2023-07-20T08:55:45;99760.78;;;21.89;50.69
75855;BME280;64502;59.976;30.316;2023-07-20T08:58:13;99770.94;;;22.08;50.02
75855;BME280;64502;59.976;30.316;2023-07-20T09:00:41;99769.75;;;22.26;49.60
75855;BME280;64502;59.976;30.316;2023-07-20T09:03:07;99765.13;;;22.20;49.16
75855;BME280;64502;59.976;30.316;2023-07-20T09:05:33;99772.09;;;21.99;49.53
75855;BME280;64502;59.976;30.316;2023-07-20T09:08:02;99769.94;;;21.80;49.53
75855;BME280;64502;59.976;30.316;2023-07-20T09:10:29;99770.59;;;21.67;49.99
75855;BME280;64502;59.976;30.316;2023-07-20T09:12:54;99777.06;;;21.58;49.87
75855;BME280;64502;59.976;30.316;2023-07-20T09:15:21;99778.38;;;21.62;49.35
75855;BME280;64502;59.976;30.316;2023-07-20T09:17:50;99789.00;;;21.55;48.57
75855;BME280;64502;59.976;30.316;2023-07-20T09:20:17;99780.59;;;21.58;49.81
75855;BME280;64502;59.976;30.316;2023-07-20T09:22:44;99781.63;;;21.72;49.03
75855;BME280;64502;59.976;30.316;2023-07-20T09:25:16;99793.91;;;21.96;49.59
75855;BME280;64502;59.976;30.316;2023-07-20T09:27:47;99787.72;;;22.10;48.74
75855;BME280;64502;59.976;30.316;2023-07-20T09:30:14;99794.69;;;22.05;49.27
75855;BME280;64502;59.976;30.316;2023-07-20T09:32:48;99782.56;;;21.94;50.12
75855;BME280;64502;59.976;30.316;2023-07-20T09:35:18;99796.97;;;21.93;48.67
75855;BME280;64502;59.976;30.316;2023-07-20T09:37:50;99792.06;;;22.11;49.17
75855;BME280;64502;59.976;30.316;2023-07-20T09:40:20;99791.06;;;22.27;48.42
75855;BME280;64502;59.976;30.316;2023-07-20T09:42:46;99786.22;;;22.37;47.84
75855;BME280;64502;59.976;30.316;2023-07-20T09:45:12;99788.81;;;22.31;48.56
75855;BME280;64502;59.976;30.316;2023-07-20T09:47:38;99791.16;;;22.19;48.39
75855;BME280;64502;59.976;30.316;2023-07-20T09:50:04;99774.50;;;22.24;48.35
75855;BME280;64502;59.976;30.316;2023-07-20T09:52:30;99791.22;;;22.41;48.02
75855;BME280;64502;59.976;30.316;2023-07-20T09:54:57;99782.13;;;22.42;47.66
75855;BME280;64502;59.976;30.316;2023-07-20T09:57:23;99790.19;;;22.42;46.79
75855;BME280;64502;59.976;30.316;2023-07-20T09:59:48;99784.22;;;22.61;46.20
75855;BME280;64502;59.976;30.316;2023-07-20T10:02:20;99789.59;;;22.82;46.78
75855;BME280;64502;59.976;30.316;2023-07-20T10:04:48;99792.16;;;22.91;46.55
75855;BME280;64502;59.976;30.316;2023-07-20T10:07:18;99792.81;;;22.93;46.87
75855;BME280;64502;59.976;30.316;2023-07-20T10:09:47;99801.53;;;22.95;46.87
75855;BME280;64502;59.976;30.316;2023-07-20T10:12:16;99788.66;;;22.90;46.43
75855;BME280;64502;59.976;30.316;2023-07-20T10:14:49;99793.28;;;23.18;46.36
75855;BME280;64502;59.976;30.316;2023-07-20T10:17:21;99797.53;;;23.06;45.33
75855;BME280;64502;59.976;30.316;2023-07-20T10:19:49;99789.91;;;22.94;45.45
75855;BME280;64502;59.976;30.316;2023-07-20T10:22:20;99797.56;;;23.12;44.20
75855;BME280;64502;59.976;30.316;2023-07-20T10:24:50;99803.19;;;23.39;43.33
75855;BME280;64502;59.976;30.316;2023-07-20T10:27:19;99808.25;;;23.77;42.96
75855;BME280;64502;59.976;30.316;2023-07-20T10:29:45;99794.47;;;23.65;41.70
75855;BME280;64502;59.976;30.316;2023-07-20T10:32:11;99806.00;;;23.80;41.92
75855;BME280;64502;59.976;30.316;2023-07-20T10:34:37;99794.34;;;23.73;42.49
75855;BME280;64502;59.976;30.316;2023-07-20T10:37:02;99790.06;;;23.85;41.88
75855;BME280;64502;59.976;30.316;2023-07-20T10:39:33;99807.06;;;24.27;41.43
75855;BME280;64502;59.976;30.316;2023-07-20T10:42:08;99791.03;;;24.47;40.98
75855;BME280;64502;59.976;30.316;2023-07-20T10:44:39;99782.44;;;24.37;42.77
75855;BME280;64502;59.976;30.316;2023-07-20T10:47:10;99785.38;;;24.42;43.50
75855;BME280;64502;59.976;30.316;2023-07-20T10:49:58;99790.19;;;24.53;43.67
75855;BME280;64502;59.976;30.316;2023-07-20T10:52:25;99780.50;;;24.72;42.02
75855;BME280;64502;59.976;30.316;2023-07-20T10:54:50;99775.13;;;25.06;41.54
75855;BME280;64502;59.976;30.316;2023-07-20T10:57:32;99783.47;;;25.31;42.17
75855;BME280;64502;59.976;30.316;2023-07-20T11:00:18;99781.53;;;25.91;41.61
75855;BME280;64502;59.976;30.316;2023-07-20T11:02:46;99775.31;;;26.42;38.73
75855;BME280;64502;59.976;30.316;2023-07-20T11:08:09;99790.31;;;27.40;36.87
75855;BME280;64502;59.976;30.316;2023-07-20T11:10:35;99783.94;;;27.28;35.73
75855;BME280;64502;59.976;30.316;2023-07-20T11:13:22;99774.81;;;27.91;37.79
75855;BME280;64502;59.976;30.316;2023-07-20T11:16:02;99777.53;;;28.27;35.36
75855;BME280;64502;59.976;30.316;2023-07-20T11:18:31;99783.56;;;27.93;33.78
75855;BME280;64502;59.976;30.316;2023-07-20T11:20:58;99798.47;;;27.83;34.34
75855;BME280;64502;59.976;30.316;2023-07-20T11:23:23;99783.34;;;27.69;34.37
75855;BME280;64502;59.976;30.316;2023-07-20T11:25:49;99777.84;;;28.01;33.86
75855;BME280;64502;59.976;30.316;2023-07-20T11:28:15;99796.34;;;27.42;34.77
75855;BME280;64502;59.976;30.316;2023-07-20T11:30:41;99767.16;;;27.19;34.10
75855;BME280;64502;59.976;30.316;2023-07-20T11:33:09;99781.00;;;27.04;36.06
75855;BME280;64502;59.976;30.316;2023-07-20T11:35:36;99778.47;;;27.09;34.10
75855;BME280;64502;59.976;30.316;2023-07-20T11:38:06;99771.81;;;27.55;33.97
75855;BME280;64502;59.976;30.316;2023-07-20T11:40:32;99776.75;;;27.65;33.38
75855;BME280;64502;59.976;30.316;2023-07-20T11:42:57;99778.44;;;28.03;33.06
75855;BME280;64502;59.976;30.316;2023-07-20T11:45:23;99786.34;;;28.23;33.08
75855;BME280;64502;59.976;30.316;2023-07-20T11:47:52;99772.16;;;28.69;32.61
75855;BME280;64502;59.976;30.316;2023-07-20T11:50:18;99762.25;;;29.05;31.70
75855;BME280;64502;59.976;30.316;2023-07-20T11:52:46;99777.63;;;29.35;30.89
75855;BME280;64502;59.976;30.316;2023-07-20T11:55:11;99764.28;;;29.57;30.33
75855;BME280;64502;59.976;30.316;2023-07-20T11:57:39;99775.81;;;29.05;31.45
75855;BME280;64502;59.976;30.316;2023-07-20T12:00:09;99794.03;;;28.44;31.21
75855;BME280;64502;59.976;30.316;2023-07-20T12:02:37;99785.59;;;28.16;31.67
75855;BME280;64502;59.976;30.316;2023-07-20T12:05:04;99785.88;;;28.44;30.59
75855;BME280;64502;59.976;30.316;2023-07-20T12:07:35;99773.06;;;28.93;30.58
75855;BME280;64502;59.976;30.316;2023-07-20T12:10:05;99783.09;;;29.70;30.56
75855;BME280;64502;59.976;30.316;2023-07-20T12:12:48;99781.50;;;30.50;31.00
75855;BME280;64502;59.976;30.316;2023-07-20T12:15:23;99772.31;;;31.13;29.64
75855;BME280;64502;59.976;30.316;2023-07-20T12:17:51;99775.66;;;32.10;27.08
75855;BME280;64502;59.976;30.316;2023-07-20T12:20:34;99764.25;;;32.40;27.20
75855;BME280;64502;59.976;30.316;2023-07-20T12:23:08;99772.47;;;32.40;26.06
75855;BME280;64502;59.976;30.316;2023-07-20T12:25:44;99771.22;;;32.48;26.04
75855;BME280;64502;59.976;30.316;2023-07-20T12:28:16;99765.81;;;31.87;25.52
75855;BME280;64502;59.976;30.316;2023-07-20T12:30:43;99767.47;;;32.10;25.08
75855;BME280;64502;59.976;30.316;2023-07-20T12:33:09;99768.72;;;32.24;23.72
75855;BME280;64502;59.976;30.316;2023-07-20T12:35:35;99793.59;;;31.67;24.97
75855;BME280;64502;59.976;30.316;2023-07-20T12:38:00;99779.75;;;31.35;25.91
75855;BME280;64502;59.976;30.316;2023-07-20T12:40:26;99776.88;;;31.25;25.92
75855;BME280;64502;59.976;30.316;2023-07-20T12:42:52;99767.25;;;31.56;25.73
75855;BME280;64502;59.976;30.316;2023-07-20T12:45:20;99768.53;;;31.87;24.83
75855;BME280;64502;59.976;30.316;2023-07-20T12:47:47;99762.63;;;32.39;24.74
75855;BME280;64502;59.976;30.316;2023-07-20T12:50:12;99755.78;;;32.91;24.23
75855;BME280;64502;59.976;30.316;2023-07-20T12:52:39;99764.59;;;32.22;24.37
75855;BME280;64502;59.976;30.316;2023-07-20T12:55:08;99771.25;;;31.87;24.88
75855;BME280;64502;59.976;30.316;2023-07-20T12:57:35;99763.66;;;32.33;23.77
75855;BME280;64502;59.976;30.316;2023-07-20T13:00:04;99771.28;;;32.31;23.45